sensor_id;sensor_type;location;lat;lon;timestamp;P1;durP1;ratioP1;P2;durP2;ratioP2
5533;SDS011;2789;51.902;7.636;2022-10-23T00:00:29;12.80;;;6.97;;
5533;SDS011;2789;51.902;7.636;2022-10-23T00:01:32;9.30;;;7.40;;
5533;SDS011;2789;51.902;7.636;2022-10-23T00:02:35;10.27;;;7.20;;
5533;SDS011;2789;51.902;7.636;2022-10-23T00:03:37;12.10;;;7.22;;
5533;SDS011;2789;51.902;7.636;2022-10-23T00:04:40;11.10;;;7.18;;
5533;SDS011;2789;51.902;7.636;2022-10-23T00:05:42;12.18;;;7.55;;
5533;SDS011;2789;51.902;7.636;2022-10-23T00:06:45;10.93;;;7.20;;
5533;SDS011;2789;51.902;7.636;2022-10-23T00:07:48;11.30;;;7.72;;
5533;SDS011;2789;51.902;7.636;2022-10-23T00:08:50;11.15;;;7.32;;
5533;SDS011;2789;51.902;7.636;2022-10-23T00:09:54;12.52;;;7.50;;
5533;SDS011;2789;51.902;7.636;2022-10-23T00:10:56;10.88;;;7.03;;
5533;SDS011;2789;51.902;7.636;2022-10-23T00:11:59;11.32;;;7.68;;
5533;SDS011;2789;51.902;7.636;2022-10-23T00:13:01;13.90;;;7.70;;
5533;SDS011;2789;51.902;7.636;2022-10-23T00:14:03;8.93;;;6.50;;
5533;SDS011;2789;51.902;7.636;2022-10-23T00:15:07;14.32;;;7.90;;
5533;SDS011;2789;51.902;7.636;2022-10-23T00:16:09;14.93;;;7.90;;
5533;SDS011;2789;51.902;7.636;2022-10-23T00:17:12;10.52;;;7.28;;
5533;SDS011;2789;51.902;7.636;2022-10-23T00:18:14;11.95;;;7.05;;
5533;SDS011;2789;51.902;7.636;2022-10-23T00:19:16;12.05;;;7.43;;
5533;SDS011;2789;51.902;7.636;2022-10-23T00:20:19;9.32;;;6.40;;
5533;SDS011;2789;51.902;7.636;2022-10-23T00:21:22;10.32;;;7.28;;
5533;SDS011;2789;51.902;7.636;2022-10-23T00:22:25;13.30;;;7.25;;
5533;SDS011;2789;51.902;7.636;2022-10-23T00:23:27;11.80;;;7.53;;
5533;SDS011;2789;51.902;7.636;2022-10-23T00:24:29;11.77;;;7.80;;
5533;SDS011;2789;51.902;7.636;2022-10-23T00:25:32;9.43;;;7.30;;
5533;SDS011;2789;51.902;7.636;2022-10-23T00:26:35;14.75;;;8.00;;
5533;SDS011;2789;51.902;7.636;2022-10-23T00:27:38;10.32;;;7.18;;
5533;SDS011;2789;51.902;7.636;2022-10-23T00:28:41;10.80;;;7.82;;
5533;SDS011;2789;51.902;7.636;2022-10-23T00:29:43;10.05;;;7.53;;
5533;SDS011;2789;51.902;7.636;2022-10-23T00:30:46;11.90;;;7.93;;
5533;SDS011;2789;51.902;7.636;2022-10-23T00:31:47;14.20;;;9.55;;
5533;SDS011;2789;51.902;7.636;2022-10-23T00:32:50;13.90;;;8.63;;
5533;SDS011;2789;51.902;7.636;2022-10-23T00:33:52;13.27;;;9.73;;
5533;SDS011;2789;51.902;7.636;2022-10-23T00:34:55;15.40;;;9.23;;
5533;SDS011;2789;51.902;7.636;2022-10-23T00:35:56;14.52;;;8.52;;
5533;SDS011;2789;51.902;7.636;2022-10-23T00:36:59;14.05;;;8.45;;
5533;SDS011;2789;51.902;7.636;2022-10-23T00:38:02;12.75;;;8.95;;
5533;SDS011;2789;51.902;7.636;2022-10-23T00:39:03;14.07;;;9.25;;
5533;SDS011;2789;51.902;7.636;2022-10-23T00:40:07;15.20;;;8.93;;
5533;SDS011;2789;51.902;7.636;2022-10-23T00:41:12;13.93;;;9.73;;
5533;SDS011;2789;51.902;7.636;2022-10-23T00:42:17;14.30;;;9.02;;
5533;SDS011;2789;51.902;7.636;2022-10-23T00:43:20;16.08;;;9.60;;
5533;SDS011;2789;51.902;7.636;2022-10-23T00:46:04;15.90;;;10.07;;
5533;SDS011;2789;51.902;7.636;2022-10-23T00:47:06;16.13;;;10.70;;
5533;SDS011;2789;51.902;7.636;2022-10-23T00:48:09;13.05;;;9.75;;
5533;SDS011;2789;51.902;7.636;2022-10-23T00:49:11;17.88;;;11.70;;
5533;SDS011;2789;51.902;7.636;2022-10-23T00:50:14;15.85;;;10.75;;
5533;SDS011;2789;51.902;7.636;2022-10-23T00:51:16;13.90;;;10.32;;
5533;SDS011;2789;51.902;7.636;2022-10-23T00:52:19;19.02;;;10.70;;
5533;SDS011;2789;51.902;7.636;2022-10-23T00:53:20;17.20;;;10.02;;
5533;SDS011;2789;51.902;7.636;2022-10-23T00:54:24;16.02;;;10.30;;
5533;SDS011;2789;51.902;7.636;2022-10-23T00:55:28;15.63;;;9.38;;
5533;SDS011;2789;51.902;7.636;2022-10-23T00:56:33;16.30;;;9.80;;
5533;SDS011;2789;51.902;7.636;2022-10-23T00:57:39;18.30;;;11.80;;
5533;SDS011;2789;51.902;7.636;2022-10-23T00:58:43;19.23;;;10.43;;
5533;SDS011;2789;51.902;7.636;2022-10-23T00:59:45;15.75;;;9.70;;
5533;SDS011;2789;51.902;7.636;2022-10-23T01:00:48;14.48;;;8.90;;
5533;SDS011;2789;51.902;7.636;2022-10-23T01:01:51;14.65;;;9.38;;
5533;SDS011;2789;51.902;7.636;2022-10-23T01:02:54;14.00;;;9.63;;
5533;SDS011;2789;51.902;7.636;2022-10-23T01:03:56;14.55;;;9.80;;
5533;SDS011;2789;51.902;7.636;2022-10-23T01:04:59;13.20;;;9.60;;
5533;SDS011;2789;51.902;7.636;2022-10-23T01:06:02;12.27;;;8.95;;
5533;SDS011;2789;51.902;7.636;2022-10-23T01:07:10;10.70;;;8.40;;
5533;SDS011;2789;51.902;7.636;2022-10-23T01:08:16;12.15;;;8.98;;
5533;SDS011;2789;51.902;7.636;2022-10-23T01:09:21;15.98;;;9.77;;
5533;SDS011;2789;51.902;7.636;2022-10-23T01:10:29;15.25;;;9.60;;
5533;SDS011;2789;51.902;7.636;2022-10-23T01:11:36;16.88;;;9.75;;
5533;SDS011;2789;51.902;7.636;2022-10-23T01:12:43;13.38;;;9.02;;
5533;SDS011;2789;51.902;7.636;2022-10-23T01:13:48;14.75;;;9.27;;
5533;SDS011;2789;51.902;7.636;2022-10-23T01:14:58;13.05;;;8.82;;
5533;SDS011;2789;51.902;7.636;2022-10-23T01:16:06;10.35;;;8.75;;
5533;SDS011;2789;51.902;7.636;2022-10-23T01:17:13;13.20;;;8.48;;
5533;SDS011;2789;51.902;7.636;2022-10-23T01:18:19;11.38;;;7.88;;
5533;SDS011;2789;51.902;7.636;2022-10-23T01:19:26;9.98;;;8.65;;
5533;SDS011;2789;51.902;7.636;2022-10-23T01:20:39;11.20;;;8.40;;
5533;SDS011;2789;51.902;7.636;2022-10-23T01:21:46;14.98;;;9.27;;
5533;SDS011;2789;51.902;7.636;2022-10-23T01:22:59;11.25;;;8.35;;
5533;SDS011;2789;51.902;7.636;2022-10-23T01:24:15;13.88;;;8.63;;
5533;SDS011;2789;51.902;7.636;2022-10-23T01:25:24;21.13;;;9.43;;
5533;SDS011;2789;51.902;7.636;2022-10-23T01:26:32;12.55;;;9.32;;
5533;SDS011;2789;51.902;7.636;2022-10-23T01:27:44;16.58;;;9.45;;
5533;SDS011;2789;51.902;7.636;2022-10-23T01:28:49;14.93;;;8.95;;
5533;SDS011;2789;51.902;7.636;2022-10-23T01:29:58;14.20;;;8.68;;
5533;SDS011;2789;51.902;7.636;2022-10-23T01:31:04;14.00;;;9.40;;
5533;SDS011;2789;51.902;7.636;2022-10-23T01:32:12;13.38;;;9.27;;
5533;SDS011;2789;51.902;7.636;2022-10-23T01:33:16;14.13;;;8.93;;
5533;SDS011;2789;51.902;7.636;2022-10-23T01:34:26;14.45;;;10.23;;
5533;SDS011;2789;51.902;7.636;2022-10-23T01:35:30;15.55;;;9.27;;
5533;SDS011;2789;51.902;7.636;2022-10-23T01:36:38;12.95;;;9.50;;
5533;SDS011;2789;51.902;7.636;2022-10-23T01:37:42;13.73;;;8.27;;
5533;SDS011;2789;51.902;7.636;2022-10-23T01:38:48;13.30;;;9.45;;
5533;SDS011;2789;51.902;7.636;2022-10-23T01:39:54;15.95;;;8.68;;
5533;SDS011;2789;51.902;7.636;2022-10-23T01:41:00;13.02;;;8.65;;
5533;SDS011;2789;51.902;7.636;2022-10-23T01:42:05;14.50;;;9.35;;
5533;SDS011;2789;51.902;7.636;2022-10-23T01:43:13;31.45;;;9.73;;
5533;SDS011;2789;51.902;7.636;2022-10-23T01:44:18;13.90;;;8.75;;
5533;SDS011;2789;51.902;7.636;2022-10-23T01:45:24;14.55;;;9.63;;
5533;SDS011;2789;51.902;7.636;2022-10-23T01:46:28;21.33;;;9.02;;
5533;SDS011;2789;51.902;7.636;2022-10-23T01:47:31;15.60;;;9.30;;
5533;SDS011;2789;51.902;7.636;2022-10-23T01:48:34;11.73;;;8.55;;
5533;SDS011;2789;51.902;7.636;2022-10-23T01:49:37;11.05;;;8.15;;
5533;SDS011;2789;51.902;7.636;2022-10-23T01:50:40;11.80;;;8.40;;
5533;SDS011;2789;51.902;7.636;2022-10-23T01:51:44;13.68;;;9.15;;
5533;SDS011;2789;51.902;7.636;2022-10-23T01:52:47;14.10;;;8.93;;
5533;SDS011;2789;51.902;7.636;2022-10-23T01:53:51;11.68;;;8.43;;
5533;SDS011;2789;51.902;7.636;2022-10-23T01:54:56;11.52;;;8.90;;
5533;SDS011;2789;51.902;7.636;2022-10-23T01:56:01;13.88;;;8.90;;
5533;SDS011;2789;51.902;7.636;2022-10-23T01:57:03;14.27;;;8.45;;
5533;SDS011;2789;51.902;7.636;2022-10-23T01:58:08;10.85;;;8.60;;
5533;SDS011;2789;51.902;7.636;2022-10-23T01:59:13;13.15;;;8.60;;
5533;SDS011;2789;51.902;7.636;2022-10-23T02:00:17;12.82;;;8.93;;
5533;SDS011;2789;51.902;7.636;2022-10-23T02:01:21;15.55;;;8.75;;
5533;SDS011;2789;51.902;7.636;2022-10-23T02:02:25;12.45;;;8.82;;
5533;SDS011;2789;51.902;7.636;2022-10-23T02:03:27;15.80;;;8.90;;
5533;SDS011;2789;51.902;7.636;2022-10-23T02:04:33;13.93;;;9.15;;
5533;SDS011;2789;51.902;7.636;2022-10-23T02:05:36;12.32;;;7.78;;
5533;SDS011;2789;51.902;7.636;2022-10-23T02:06:40;11.57;;;8.13;;
5533;SDS011;2789;51.902;7.636;2022-10-23T02:07:41;10.77;;;8.02;;
5533;SDS011;2789;51.902;7.636;2022-10-23T02:08:45;11.70;;;8.38;;
5533;SDS011;2789;51.902;7.636;2022-10-23T02:09:47;13.43;;;8.68;;
5533;SDS011;2789;51.902;7.636;2022-10-23T02:10:51;10.80;;;7.78;;
5533;SDS011;2789;51.902;7.636;2022-10-23T02:11:58;11.25;;;7.95;;
5533;SDS011;2789;51.902;7.636;2022-10-23T02:13:05;10.27;;;8.40;;
5533;SDS011;2789;51.902;7.636;2022-10-23T02:14:10;14.43;;;8.75;;
5533;SDS011;2789;51.902;7.636;2022-10-23T02:15:19;9.98;;;7.63;;
5533;SDS011;2789;51.902;7.636;2022-10-23T02:16:25;13.13;;;9.10;;
5533;SDS011;2789;51.902;7.636;2022-10-23T02:17:32;13.18;;;9.02;;
5533;SDS011;2789;51.902;7.636;2022-10-23T02:18:43;13.18;;;8.07;;
5533;SDS011;2789;51.902;7.636;2022-10-23T02:19:50;12.50;;;8.27;;
5533;SDS011;2789;51.902;7.636;2022-10-23T02:20:58;12.98;;;8.35;;
5533;SDS011;2789;51.902;7.636;2022-10-23T02:22:03;16.60;;;9.73;;
5533;SDS011;2789;51.902;7.636;2022-10-23T02:23:12;14.93;;;8.90;;
5533;SDS011;2789;51.902;7.636;2022-10-23T02:24:19;15.70;;;9.80;;
5533;SDS011;2789;51.902;7.636;2022-10-23T02:25:24;12.48;;;9.18;;
5533;SDS011;2789;51.902;7.636;2022-10-23T02:26:33;13.52;;;8.90;;
5533;SDS011;2789;51.902;7.636;2022-10-23T02:27:37;12.95;;;9.35;;
5533;SDS011;2789;51.902;7.636;2022-10-23T02:28:42;14.23;;;9.65;;
5533;SDS011;2789;51.902;7.636;2022-10-23T02:29:49;14.48;;;8.60;;
5533;SDS011;2789;51.902;7.636;2022-10-23T02:30:53;15.52;;;9.02;;
5533;SDS011;2789;51.902;7.636;2022-10-23T02:31:56;13.57;;;9.38;;
5533;SDS011;2789;51.902;7.636;2022-10-23T02:32:58;15.73;;;9.68;;
5533;SDS011;2789;51.902;7.636;2022-10-23T02:34:01;13.82;;;9.45;;
5533;SDS011;2789;51.902;7.636;2022-10-23T02:35:04;15.02;;;9.00;;
5533;SDS011;2789;51.902;7.636;2022-10-23T02:36:07;15.88;;;9.57;;
5533;SDS011;2789;51.902;7.636;2022-10-23T02:37:10;14.65;;;9.05;;
5533;SDS011;2789;51.902;7.636;2022-10-23T02:38:25;15.18;;;9.35;;
5533;SDS011;2789;51.902;7.636;2022-10-23T02:39:30;14.45;;;9.00;;
5533;SDS011;2789;51.902;7.636;2022-10-23T02:40:34;14.85;;;9.52;;
5533;SDS011;2789;51.902;7.636;2022-10-23T02:41:39;12.98;;;8.32;;
5533;SDS011;2789;51.902;7.636;2022-10-23T02:42:44;16.08;;;9.38;;
5533;SDS011;2789;51.902;7.636;2022-10-23T02:43:56;14.45;;;8.68;;
5533;SDS011;2789;51.902;7.636;2022-10-23T02:45:06;14.98;;;9.40;;
5533;SDS011;2789;51.902;7.636;2022-10-23T02:46:13;12.30;;;8.82;;
5533;SDS011;2789;51.902;7.636;2022-10-23T02:47:26;10.68;;;8.35;;
5533;SDS011;2789;51.902;7.636;2022-10-23T02:48:35;15.10;;;8.82;;
5533;SDS011;2789;51.902;7.636;2022-10-23T02:49:41;12.52;;;8.50;;
5533;SDS011;2789;51.902;7.636;2022-10-23T02:50:48;13.30;;;9.38;;
5533;SDS011;2789;51.902;7.636;2022-10-23T02:51:54;14.45;;;9.02;;
5533;SDS011;2789;51.902;7.636;2022-10-23T02:53:02;11.25;;;8.18;;
5533;SDS011;2789;51.902;7.636;2022-10-23T02:54:10;15.65;;;9.35;;
5533;SDS011;2789;51.902;7.636;2022-10-23T02:55:20;11.60;;;8.43;;
5533;SDS011;2789;51.902;7.636;2022-10-23T02:56:27;13.27;;;8.75;;
5533;SDS011;2789;51.902;7.636;2022-10-23T02:57:36;11.27;;;8.20;;
5533;SDS011;2789;51.902;7.636;2022-10-23T02:58:43;13.55;;;8.02;;
5533;SDS011;2789;51.902;7.636;2022-10-23T02:59:50;13.20;;;8.82;;
5533;SDS011;2789;51.902;7.636;2022-10-23T03:00:58;12.98;;;8.95;;
5533;SDS011;2789;51.902;7.636;2022-10-23T03:02:05;11.50;;;7.97;;
5533;SDS011;2789;51.902;7.636;2022-10-23T03:03:10;12.77;;;8.98;;
5533;SDS011;2789;51.902;7.636;2022-10-23T03:04:15;17.30;;;8.63;;
5533;SDS011;2789;51.902;7.636;2022-10-23T03:05:18;11.73;;;8.93;;
5533;SDS011;2789;51.902;7.636;2022-10-23T03:06:23;11.27;;;8.00;;
5533;SDS011;2789;51.902;7.636;2022-10-23T03:07:25;15.13;;;9.07;;
5533;SDS011;2789;51.902;7.636;2022-10-23T03:08:27;14.20;;;9.88;;
5533;SDS011;2789;51.902;7.636;2022-10-23T03:09:30;11.60;;;7.88;;
5533;SDS011;2789;51.902;7.636;2022-10-23T03:10:32;13.98;;;8.65;;
5533;SDS011;2789;51.902;7.636;2022-10-23T03:11:34;14.18;;;8.55;;
5533;SDS011;2789;51.902;7.636;2022-10-23T03:12:36;13.70;;;8.52;;
5533;SDS011;2789;51.902;7.636;2022-10-23T03:13:38;12.18;;;8.13;;
5533;SDS011;2789;51.902;7.636;2022-10-23T03:14:40;10.70;;;8.00;;
5533;SDS011;2789;51.902;7.636;2022-10-23T03:15:43;14.25;;;9.27;;
5533;SDS011;2789;51.902;7.636;2022-10-23T03:16:45;14.50;;;8.07;;
5533;SDS011;2789;51.902;7.636;2022-10-23T03:17:48;15.20;;;7.72;;
5533;SDS011;2789;51.902;7.636;2022-10-23T03:18:51;12.98;;;8.45;;
5533;SDS011;2789;51.902;7.636;2022-10-23T03:19:52;13.02;;;8.27;;
5533;SDS011;2789;51.902;7.636;2022-10-23T03:20:55;12.30;;;7.45;;
5533;SDS011;2789;51.902;7.636;2022-10-23T03:21:57;13.90;;;7.95;;
5533;SDS011;2789;51.902;7.636;2022-10-23T03:22:59;13.20;;;8.07;;
5533;SDS011;2789;51.902;7.636;2022-10-23T03:24:01;12.93;;;8.00;;
5533;SDS011;2789;51.902;7.636;2022-10-23T03:25:03;13.50;;;7.78;;
5533;SDS011;2789;51.902;7.636;2022-10-23T03:26:06;13.82;;;9.73;;
5533;SDS011;2789;51.902;7.636;2022-10-23T03:27:08;12.75;;;7.90;;
5533;SDS011;2789;51.902;7.636;2022-10-23T03:28:13;13.00;;;8.40;;
5533;SDS011;2789;51.902;7.636;2022-10-23T03:29:15;9.60;;;7.03;;
5533;SDS011;2789;51.902;7.636;2022-10-23T03:30:17;11.32;;;8.05;;
5533;SDS011;2789;51.902;7.636;2022-10-23T03:31:19;14.48;;;8.70;;
5533;SDS011;2789;51.902;7.636;2022-10-23T03:32:23;16.35;;;8.68;;
5533;SDS011;2789;51.902;7.636;2022-10-23T03:33:25;10.35;;;8.38;;
5533;SDS011;2789;51.902;7.636;2022-10-23T03:34:27;11.32;;;8.20;;
5533;SDS011;2789;51.902;7.636;2022-10-23T03:35:29;12.25;;;7.88;;
5533;SDS011;2789;51.902;7.636;2022-10-23T03:36:31;11.38;;;7.80;;
5533;SDS011;2789;51.902;7.636;2022-10-23T03:37:34;14.20;;;8.70;;
5533;SDS011;2789;51.902;7.636;2022-10-23T03:38:35;14.43;;;8.23;;
5533;SDS011;2789;51.902;7.636;2022-10-23T03:39:38;12.57;;;7.70;;
5533;SDS011;2789;51.902;7.636;2022-10-23T03:40:41;13.25;;;8.40;;
5533;SDS011;2789;51.902;7.636;2022-10-23T03:41:42;12.70;;;7.72;;
5533;SDS011;2789;51.902;7.636;2022-10-23T03:42:45;13.20;;;8.23;;
5533;SDS011;2789;51.902;7.636;2022-10-23T03:43:48;11.05;;;7.97;;
5533;SDS011;2789;51.902;7.636;2022-10-23T03:44:49;13.20;;;7.93;;
5533;SDS011;2789;51.902;7.636;2022-10-23T03:45:52;14.20;;;8.07;;
5533;SDS011;2789;51.902;7.636;2022-10-23T03:46:53;13.55;;;7.80;;
5533;SDS011;2789;51.902;7.636;2022-10-23T03:47:57;10.32;;;7.35;;
5533;SDS011;2789;51.902;7.636;2022-10-23T03:49:00;12.40;;;8.18;;
5533;SDS011;2789;51.902;7.636;2022-10-23T03:50:02;10.30;;;7.72;;
5533;SDS011;2789;51.902;7.636;2022-10-23T03:51:05;12.88;;;7.80;;
5533;SDS011;2789;51.902;7.636;2022-10-23T03:52:07;10.82;;;7.20;;
5533;SDS011;2789;51.902;7.636;2022-10-23T03:53:10;9.98;;;7.80;;
5533;SDS011;2789;51.902;7.636;2022-10-23T03:54:11;14.15;;;8.13;;
5533;SDS011;2789;51.902;7.636;2022-10-23T03:55:14;15.05;;;7.93;;
5533;SDS011;2789;51.902;7.636;2022-10-23T03:56:16;11.05;;;7.40;;
5533;SDS011;2789;51.902;7.636;2022-10-23T03:57:18;10.65;;;7.47;;
5533;SDS011;2789;51.902;7.636;2022-10-23T03:58:20;15.95;;;8.77;;
5533;SDS011;2789;51.902;7.636;2022-10-23T03:59:22;11.60;;;7.45;;
5533;SDS011;2789;51.902;7.636;2022-10-23T04:00:24;11.80;;;7.70;;
5533;SDS011;2789;51.902;7.636;2022-10-23T04:01:26;13.30;;;7.65;;
5533;SDS011;2789;51.902;7.636;2022-10-23T04:02:28;14.90;;;7.32;;
5533;SDS011;2789;51.902;7.636;2022-10-23T04:03:32;10.38;;;6.78;;
5533;SDS011;2789;51.902;7.636;2022-10-23T04:04:34;11.15;;;7.30;;
5533;SDS011;2789;51.902;7.636;2022-10-23T04:05:37;12.02;;;7.18;;
5533;SDS011;2789;51.902;7.636;2022-10-23T04:06:39;13.27;;;7.60;;
5533;SDS011;2789;51.902;7.636;2022-10-23T04:07:42;14.05;;;7.60;;
5533;SDS011;2789;51.902;7.636;2022-10-23T04:08:43;15.27;;;8.85;;
5533;SDS011;2789;51.902;7.636;2022-10-23T04:09:46;11.45;;;7.38;;
5533;SDS011;2789;51.902;7.636;2022-10-23T04:10:48;9.48;;;7.60;;
5533;SDS011;2789;51.902;7.636;2022-10-23T04:11:50;11.70;;;7.68;;
5533;SDS011;2789;51.902;7.636;2022-10-23T04:12:53;12.10;;;7.43;;
5533;SDS011;2789;51.902;7.636;2022-10-23T04:13:54;13.38;;;7.95;;
5533;SDS011;2789;51.902;7.636;2022-10-23T04:14:57;12.50;;;7.80;;
5533;SDS011;2789;51.902;7.636;2022-10-23T04:15:58;12.48;;;7.78;;
5533;SDS011;2789;51.902;7.636;2022-10-23T04:17:01;9.93;;;7.60;;
5533;SDS011;2789;51.902;7.636;2022-10-23T04:18:03;9.40;;;7.22;;
5533;SDS011;2789;51.902;7.636;2022-10-23T04:19:06;13.25;;;7.70;;
5533;SDS011;2789;51.902;7.636;2022-10-23T04:20:09;12.38;;;7.13;;
5533;SDS011;2789;51.902;7.636;2022-10-23T04:21:11;10.18;;;7.25;;
5533;SDS011;2789;51.902;7.636;2022-10-23T04:22:13;8.82;;;7.40;;
5533;SDS011;2789;51.902;7.636;2022-10-23T04:23:16;11.70;;;7.47;;
5533;SDS011;2789;51.902;7.636;2022-10-23T04:24:18;8.80;;;7.40;;
5533;SDS011;2789;51.902;7.636;2022-10-23T04:25:20;9.93;;;7.65;;
5533;SDS011;2789;51.902;7.636;2022-10-23T04:26:23;10.70;;;7.40;;
5533;SDS011;2789;51.902;7.636;2022-10-23T04:27:24;10.43;;;6.95;;
5533;SDS011;2789;51.902;7.636;2022-10-23T04:28:27;12.27;;;7.35;;
5533;SDS011;2789;51.902;7.636;2022-10-23T04:29:29;9.98;;;7.15;;
5533;SDS011;2789;51.902;7.636;2022-10-23T04:30:32;13.85;;;7.32;;
5533;SDS011;2789;51.902;7.636;2022-10-23T04:31:34;9.60;;;7.07;;
5533;SDS011;2789;51.902;7.636;2022-10-23T04:32:37;10.85;;;7.28;;
5533;SDS011;2789;51.902;7.636;2022-10-23T04:33:38;8.13;;;6.75;;
5533;SDS011;2789;51.902;7.636;2022-10-23T04:34:42;13.27;;;7.63;;
5533;SDS011;2789;51.902;7.636;2022-10-23T04:35:44;11.00;;;7.47;;
5533;SDS011;2789;51.902;7.636;2022-10-23T04:36:46;10.68;;;7.68;;
5533;SDS011;2789;51.902;7.636;2022-10-23T04:37:48;10.13;;;7.35;;
5533;SDS011;2789;51.902;7.636;2022-10-23T04:38:50;13.75;;;8.30;;
5533;SDS011;2789;51.902;7.636;2022-10-23T04:39:53;15.88;;;7.75;;
5533;SDS011;2789;51.902;7.636;2022-10-23T04:40:55;10.13;;;7.22;;
5533;SDS011;2789;51.902;7.636;2022-10-23T04:41:57;13.10;;;7.78;;
5533;SDS011;2789;51.902;7.636;2022-10-23T04:43:00;15.70;;;7.18;;
5533;SDS011;2789;51.902;7.636;2022-10-23T04:44:01;13.95;;;8.02;;
5533;SDS011;2789;51.902;7.636;2022-10-23T04:45:04;11.57;;;7.57;;
5533;SDS011;2789;51.902;7.636;2022-10-23T04:46:06;11.63;;;7.70;;
5533;SDS011;2789;51.902;7.636;2022-10-23T04:47:09;9.63;;;7.25;;
5533;SDS011;2789;51.902;7.636;2022-10-23T04:48:13;11.88;;;7.53;;
5533;SDS011;2789;51.902;7.636;2022-10-23T04:49:16;12.35;;;7.43;;
5533;SDS011;2789;51.902;7.636;2022-10-23T04:50:18;10.73;;;7.72;;
5533;SDS011;2789;51.902;7.636;2022-10-23T04:51:21;14.95;;;7.47;;
5533;SDS011;2789;51.902;7.636;2022-10-23T04:52:23;12.85;;;7.70;;
5533;SDS011;2789;51.902;7.636;2022-10-23T04:53:26;14.63;;;7.63;;
5533;SDS011;2789;51.902;7.636;2022-10-23T04:54:28;11.88;;;6.88;;
5533;SDS011;2789;51.902;7.636;2022-10-23T04:55:35;14.40;;;7.88;;
5533;SDS011;2789;51.902;7.636;2022-10-23T04:56:37;11.63;;;8.23;;
5533;SDS011;2789;51.902;7.636;2022-10-23T04:57:40;12.20;;;6.93;;
5533;SDS011;2789;51.902;7.636;2022-10-23T04:58:41;10.50;;;8.27;;
5533;SDS011;2789;51.902;7.636;2022-10-23T04:59:44;9.13;;;7.47;;
5533;SDS011;2789;51.902;7.636;2022-10-23T05:00:46;10.15;;;7.03;;
5533;SDS011;2789;51.902;7.636;2022-10-23T05:01:49;9.05;;;6.93;;
5533;SDS011;2789;51.902;7.636;2022-10-23T05:02:50;12.63;;;8.18;;
5533;SDS011;2789;51.902;7.636;2022-10-23T05:03:53;11.60;;;7.05;;
5533;SDS011;2789;51.902;7.636;2022-10-23T05:04:56;15.40;;;8.07;;
5533;SDS011;2789;51.902;7.636;2022-10-23T05:06:00;9.77;;;7.20;;
5533;SDS011;2789;51.902;7.636;2022-10-23T05:07:02;11.32;;;7.05;;
5533;SDS011;2789;51.902;7.636;2022-10-23T05:08:04;9.57;;;7.93;;
5533;SDS011;2789;51.902;7.636;2022-10-23T05:09:06;11.57;;;7.97;;
5533;SDS011;2789;51.902;7.636;2022-10-23T05:10:09;9.77;;;7.45;;
5533;SDS011;2789;51.902;7.636;2022-10-23T05:11:11;12.30;;;7.10;;
5533;SDS011;2789;51.902;7.636;2022-10-23T05:12:13;11.27;;;7.20;;
5533;SDS011;2789;51.902;7.636;2022-10-23T05:13:15;14.68;;;8.20;;
5533;SDS011;2789;51.902;7.636;2022-10-23T05:14:19;13.95;;;7.68;;
5533;SDS011;2789;51.902;7.636;2022-10-23T05:15:23;12.88;;;7.35;;
5533;SDS011;2789;51.902;7.636;2022-10-23T05:16:27;9.45;;;7.35;;
5533;SDS011;2789;51.902;7.636;2022-10-23T05:17:34;11.23;;;7.97;;
5533;SDS011;2789;51.902;7.636;2022-10-23T05:18:39;11.90;;;7.70;;
5533;SDS011;2789;51.902;7.636;2022-10-23T05:19:45;10.95;;;7.43;;
5533;SDS011;2789;51.902;7.636;2022-10-23T05:20:52;12.18;;;8.27;;
5533;SDS011;2789;51.902;7.636;2022-10-23T05:21:57;10.77;;;7.72;;
5533;SDS011;2789;51.902;7.636;2022-10-23T05:22:59;14.30;;;7.68;;
5533;SDS011;2789;51.902;7.636;2022-10-23T05:24:02;9.23;;;7.25;;
5533;SDS011;2789;51.902;7.636;2022-10-23T05:25:05;9.52;;;7.20;;
5533;SDS011;2789;51.902;7.636;2022-10-23T05:26:07;12.63;;;8.30;;
5533;SDS011;2789;51.902;7.636;2022-10-23T05:27:13;13.25;;;7.55;;
5533;SDS011;2789;51.902;7.636;2022-10-23T05:28:14;10.35;;;7.43;;
5533;SDS011;2789;51.902;7.636;2022-10-23T05:29:17;10.13;;;6.97;;
5533;SDS011;2789;51.902;7.636;2022-10-23T05:30:20;10.35;;;7.28;;
5533;SDS011;2789;51.902;7.636;2022-10-23T05:31:21;11.30;;;7.28;;
5533;SDS011;2789;51.902;7.636;2022-10-23T05:32:26;10.23;;;6.85;;
5533;SDS011;2789;51.902;7.636;2022-10-23T05:33:30;11.57;;;7.00;;
5533;SDS011;2789;51.902;7.636;2022-10-23T05:34:33;9.68;;;7.32;;
5533;SDS011;2789;51.902;7.636;2022-10-23T05:35:35;14.32;;;8.00;;
5533;SDS011;2789;51.902;7.636;2022-10-23T05:36:38;9.63;;;7.20;;
5533;SDS011;2789;51.902;7.636;2022-10-23T05:37:42;10.57;;;7.32;;
5533;SDS011;2789;51.902;7.636;2022-10-23T05:38:47;14.95;;;7.80;;
5533;SDS011;2789;51.902;7.636;2022-10-23T05:39:48;11.80;;;7.10;;
5533;SDS011;2789;51.902;7.636;2022-10-23T05:40:51;15.05;;;8.27;;
5533;SDS011;2789;51.902;7.636;2022-10-23T05:41:54;12.68;;;7.85;;
5533;SDS011;2789;51.902;7.636;2022-10-23T05:42:56;15.30;;;8.90;;
5533;SDS011;2789;51.902;7.636;2022-10-23T05:43:58;12.23;;;7.70;;
5533;SDS011;2789;51.902;7.636;2022-10-23T05:45:00;13.48;;;7.93;;
5533;SDS011;2789;51.902;7.636;2022-10-23T05:46:03;11.80;;;8.10;;
5533;SDS011;2789;51.902;7.636;2022-10-23T05:47:05;11.52;;;8.07;;
5533;SDS011;2789;51.902;7.636;2022-10-23T05:48:08;12.07;;;7.57;;
5533;SDS011;2789;51.902;7.636;2022-10-23T05:49:30;10.82;;;7.70;;
5533;SDS011;2789;51.902;7.636;2022-10-23T05:50:34;13.18;;;7.40;;
5533;SDS011;2789;51.902;7.636;2022-10-23T05:51:36;12.20;;;7.10;;
5533;SDS011;2789;51.902;7.636;2022-10-23T05:52:39;10.20;;;7.18;;
5533;SDS011;2789;51.902;7.636;2022-10-23T05:53:44;12.63;;;7.18;;
5533;SDS011;2789;51.902;7.636;2022-10-23T05:54:45;13.05;;;8.77;;
5533;SDS011;2789;51.902;7.636;2022-10-23T05:55:48;11.70;;;8.38;;
5533;SDS011;2789;51.902;7.636;2022-10-23T05:56:49;15.27;;;7.53;;
5533;SDS011;2789;51.902;7.636;2022-10-23T05:57:52;12.82;;;7.32;;
5533;SDS011;2789;51.902;7.636;2022-10-23T05:58:54;12.52;;;7.72;;
5533;SDS011;2789;51.902;7.636;2022-10-23T05:59:56;14.45;;;7.57;;
5533;SDS011;2789;51.902;7.636;2022-10-23T06:00:58;11.15;;;7.15;;
5533;SDS011;2789;51.902;7.636;2022-10-23T06:02:01;12.38;;;8.00;;
5533;SDS011;2789;51.902;7.636;2022-10-23T06:03:02;14.32;;;7.65;;
5533;SDS011;2789;51.902;7.636;2022-10-23T06:04:05;11.48;;;8.52;;
5533;SDS011;2789;51.902;7.636;2022-10-23T06:05:07;10.85;;;7.95;;
5533;SDS011;2789;51.902;7.636;2022-10-23T06:06:10;12.77;;;8.32;;
5533;SDS011;2789;51.902;7.636;2022-10-23T06:07:12;13.77;;;7.90;;
5533;SDS011;2789;51.902;7.636;2022-10-23T06:08:14;11.75;;;7.55;;
5533;SDS011;2789;51.902;7.636;2022-10-23T06:09:17;14.05;;;8.07;;
5533;SDS011;2789;51.902;7.636;2022-10-23T06:10:20;14.70;;;7.95;;
5533;SDS011;2789;51.902;7.636;2022-10-23T06:11:21;12.45;;;7.90;;
5533;SDS011;2789;51.902;7.636;2022-10-23T06:12:24;12.65;;;7.90;;
5533;SDS011;2789;51.902;7.636;2022-10-23T06:13:26;10.38;;;6.95;;
5533;SDS011;2789;51.902;7.636;2022-10-23T06:14:28;12.73;;;7.85;;
5533;SDS011;2789;51.902;7.636;2022-10-23T06:15:30;13.40;;;7.70;;
5533;SDS011;2789;51.902;7.636;2022-10-23T06:16:32;12.32;;;7.43;;
5533;SDS011;2789;51.902;7.636;2022-10-23T06:17:34;9.70;;;6.47;;
5533;SDS011;2789;51.902;7.636;2022-10-23T06:18:36;8.95;;;7.22;;
5533;SDS011;2789;51.902;7.636;2022-10-23T06:19:38;17.38;;;7.65;;
5533;SDS011;2789;51.902;7.636;2022-10-23T06:20:41;10.82;;;7.97;;
5533;SDS011;2789;51.902;7.636;2022-10-23T06:21:44;11.15;;;8.07;;
5533;SDS011;2789;51.902;7.636;2022-10-23T06:22:47;12.45;;;7.68;;
5533;SDS011;2789;51.902;7.636;2022-10-23T06:23:48;12.35;;;7.93;;
5533;SDS011;2789;51.902;7.636;2022-10-23T06:24:52;13.50;;;8.38;;
5533;SDS011;2789;51.902;7.636;2022-10-23T06:25:54;12.10;;;8.43;;
5533;SDS011;2789;51.902;7.636;2022-10-23T06:26:56;15.00;;;7.65;;
5533;SDS011;2789;51.902;7.636;2022-10-23T06:27:58;12.07;;;7.43;;
5533;SDS011;2789;51.902;7.636;2022-10-23T06:29:01;11.85;;;7.63;;
5533;SDS011;2789;51.902;7.636;2022-10-23T06:30:02;12.52;;;7.80;;
5533;SDS011;2789;51.902;7.636;2022-10-23T06:31:07;15.18;;;8.18;;
5533;SDS011;2789;51.902;7.636;2022-10-23T06:32:10;12.88;;;7.22;;